Nearby METAR Reports

 

KAVP - Avoca/Wilkes B., Pennsylvania, USA
Distance from station: NE 13mi, 20km
Updated: Sat, 08-Aug-2020 9:54pm PDT
Clear
Clear
 Wind from calm
Wind: Calm
Temperature: 70°F , 21°C
Dew Point: 66°F , 19°C
Humidity: 88%
Barometer: 30.15 inHg , 1021 hPa
Clouds: Clear
Visibility: 10 miles , 16 km
2020/08/09 04:54 KAVP 090454Z 00000KT 10SM CLR 21/19 A3015 RMK AO2 SLP200 T02060189 403060172
KMPO - Mt. Pocono, Pennsylvania, USA
Distance from station: ESE 28mi, 45km
Updated: Sat, 08-Aug-2020 10:18pm PDT
Clear
Clear
 Wind from calm
Wind: Calm
Temperature: 63°F , 17°C
Dew Point: 61°F , 16°C
Humidity: 94%
Barometer: 30.20 inHg , 1022.7 hPa
Clouds: Clear
Visibility: 8 miles , 13 km
2020/08/09 05:18 KMPO 090518Z AUTO 00000KT 8SM CLR 17/16 A3020 RMK AO2 T01670161 $
 
KABE - Allentown, Pennsylvania, USA
Distance from station: SSE 46mi, 74km
Updated: Sat, 08-Aug-2020 9:51pm PDT
Clear
Clear
 Wind from calm
Wind: Calm
Temperature: 70°F , 21°C
Dew Point: 66°F , 19°C
Humidity: 88%
Barometer: 30.13 inHg , 1020.3 hPa
Clouds: Clear
Visibility: 10 miles , 16 km
2020/08/09 04:51 KABE 090451Z AUTO 00000KT 10SM CLR 21/19 A3013 RMK AO2 SLP202 T02110194 402940178
KXLL - Allentown Queen, Pennsylvania, USA
Distance from station: SSE 50mi, 81km
Updated: Sat, 08-Aug-2020 10:15pm PDT
Clear
Clear
 Wind from calm
Wind: Calm
Temperature: 70°F , 21°C
Dew Point: 68°F , 20°C
Humidity: 94%
Barometer: 30.15 inHg , 1021 hPa
Clouds: Clear
Visibility: 10 miles , 16 km
2020/08/09 05:15 KXLL 090515Z AUTO 00000KT 10SM CLR 21/20 A3015 RMK AO2
 
KIPT - Williamsport, Pennsylvania, USA
Distance from station: W 52mi, 84km
Updated: Sat, 08-Aug-2020 9:54pm PDT
Mostly Cloudy
Mostly Cloudy
 Wind from calm
Wind: Calm
Temperature: 72°F , 22°C
Dew Point: 66°F , 19°C
Humidity: 83%
Barometer: 30.12 inHg , 1020 hPa
Clouds: Mostly Cloudy
Visibility: 10 miles , 16 km
Cloud details: Mostly Cloudy 5500 ft
Mostly Cloudy 7000 ft
2020/08/09 04:54 KIPT 090454Z AUTO 00000KT 10SM BKN055 BKN070 22/19 A3012 RMK AO2 SLP195 T02170189 402940194
KSEG - Selinsgrove, Pennsylvania, USA
Distance from station: WSW 57mi, 92km
Updated: Sat, 08-Aug-2020 9:53pm PDT
Mist, Clear
Mist, Clear
 Wind from calm
Wind: Calm
Temperature: 66°F , 19°C
Dew Point: 64°F , 18°C
Humidity: 94%
Barometer: 30.14 inHg , 1020.7 hPa
Summary: Mist
Clouds: Clear
Visibility: 6 miles , 10 km
2020/08/09 04:53 KSEG 090453Z AUTO 00000KT 6SM BR CLR 19/18 A3014 RMK AO2 SLP204 T01890183 402830178
 
KRDG - Reading, Pennsylvania, USA
Distance from station: S 59mi, 95km
Updated: Sat, 08-Aug-2020 9:54pm PDT
Clear
Clear
 Wind from calm
Wind: Calm
Temperature: 72°F , 22°C
Dew Point: 68°F , 20°C
Humidity: 88%
Barometer: 30.12 inHg , 1020 hPa
Clouds: Clear
Visibility: 10 miles , 16 km
2020/08/09 04:54 KRDG 090454Z AUTO 00000KT 10SM CLR 22/20 A3012 RMK AO2 SLP203 T02170200 403000206
KUKT - Quakertown Arp, Pennsylvania, USA
Distance from station: SSE 61mi, 98km
Updated: Sat, 08-Aug-2020 10:35pm PDT
Clear
Clear
 Wind from calm
Wind: Calm
Temperature: 68°F , 20°C
Dew Point: 68°F , 20°C
Humidity: 100%
Barometer: 30.15 inHg , 1021 hPa
Clouds: Clear
Visibility: 9 miles , 14 km
2020/08/09 05:35 KUKT 090535Z AUTO 00000KT 9SM CLR 20/20 A3015 RMK A01
 
K12N - Andover, New Jersey, USA
Distance from station: ESE 63mi, 101km
Updated: Sat, 08-Aug-2020 9:54pm PDT

 Wind from calm
Wind: Calm
Temperature: 70°F , 21°C
Dew Point: 66°F , 19°C
Humidity: 88%
Barometer: 30.15 inHg , 1021 hPa
2020/08/09 04:54 K12N 090454Z AUTO 00000KT 21/19 A3015 RMK AO1 SLP201 T02060194 402940178
KMUI - Muir Aaf/Indiant, Pennsylvania, USA
Distance from station: SSW 65mi, 105km
Updated: Sat, 08-Aug-2020 9:56pm PDT
Clear
Clear
 
Temperature: 68°F , 20°C
Dew Point: 66°F , 19°C
Humidity: 94%
Barometer: 30.15 inHg , 1021 hPa
Clouds: Clear
Visibility: M 10 miles , 16 km
2020/08/09 04:56 KMUI 090456Z AUTO M 10SM CLR 20/19 A3015 RMK AO2 SLP210 T01960191 402840195 $
 
KFWN - Sussex, New Jersey, USA
Distance from station: E 66mi, 107km
Updated: Sat, 08-Aug-2020 9:53pm PDT
Clear
Clear
 Wind from calm
Wind: Calm
Temperature: 68°F , 20°C
Dew Point: 66°F , 19°C
Humidity: 94%
Barometer: 30.14 inHg , 1020.7 hPa
Clouds: Clear
Visibility: 10 miles , 16 km
2020/08/09 04:53 KFWN 090453Z AUTO 00000KT 10SM CLR 20/19 A3014 RMK AO2 SLP203 T02000189 402940156
KMSV - Monticello, New York, USA
Distance from station: ENE 67mi, 108km
Updated: Sat, 08-Aug-2020 9:56pm PDT
Clear
Clear
 Wind from calm
Wind: Calm
Temperature: 64°F , 18°C
Dew Point: 64°F , 18°C
Humidity: 100%
Barometer: 30.18 inHg , 1022 hPa
Clouds: Clear
Visibility: 10 miles , 16 km
2020/08/09 04:56 KMSV 090456Z AUTO 00000KT 10SM CLR 18/18 A3018 RMK AO2 SLP211 T01830178 402720150
 
KBGM - Binghamton, New York, USA
Distance from station: N 69mi, 111km
Updated: Sat, 08-Aug-2020 9:53pm PDT
Clear
Clear
 Wind from calm
Wind: Calm
Temperature: 66°F , 19°C
Dew Point: 61°F , 16°C
Humidity: 83%
Barometer: 30.16 inHg , 1021.3 hPa
Clouds: Clear
Visibility: 10 miles , 16 km
2020/08/09 04:53 KBGM 090453Z AUTO 00000KT 10SM CLR 19/16 A3016 RMK AO2 SLP203 T01890161 402720156
KPTW - Pottstown, Pennsylvania, USA
Distance from station: SSE 71mi, 114km
Updated: Sat, 08-Aug-2020 9:54pm PDT
Few Clouds
Few Clouds
 Wind from SE
Wind: SE 3 mph , 6 km/h
Temperature: 68°F , 20°C
Dew Point: 66°F , 19°C
Humidity: 94%
Barometer: 30.16 inHg , 1021.3 hPa
Clouds: Few Clouds
Visibility: 8 miles , 13 km
Cloud details: Few Clouds 3200 ft
2020/08/09 04:54 KPTW 090454Z AUTO 13003KT 8SM FEW032 20/19 A3016 RMK AO2 SLP208 T02000194 402780178 $
 
KDYL - Doylestown, Pennsylvania, USA
Distance from station: SE 74mi, 119km
Updated: Sat, 08-Aug-2020 10:33pm PDT
Few Clouds
Few Clouds
 Wind from calm
Wind: Calm
Temperature: 70°F , 21°C
Dew Point: 66°F , 19°C
Humidity: 88%
Barometer: 30.14 inHg , 1020.7 hPa
Clouds: Few Clouds
Visibility: 8 miles , 13 km
Cloud details: Few Clouds 900 ft
2020/08/09 05:33 KDYL 090533Z AUTO 00000KT 8SM FEW009 21/19 A3014 RMK AO2 T02110194
KSMQ - Somerville, New Jersey, USA
Distance from station: ESE 77mi, 124km
Updated: Sat, 08-Aug-2020 10:34pm PDT
Mist, Mostly cloudy
Mist, Mostly cloudy
 Wind from calm
Wind: Calm
Temperature: 68°F , 20°C
Dew Point: 66°F , 19°C
Humidity: 94%
Barometer: 30.12 inHg , 1020 hPa
Summary: Mist
Clouds: Mostly Cloudy
Visibility: 4 miles , 6 km
Cloud details: Mostly Cloudy 1500 ft
2020/08/09 05:34 KSMQ 090534Z AUTO 00000KT 4SM BR BKN015 20/19 A3012 RMK AO2 T02000194
 
KLNS - Lancaster, Pennsylvania, USA
Distance from station: SSW 79mi, 127km
Updated: Sat, 08-Aug-2020 9:53pm PDT
Clear
Clear
 Wind from calm
Wind: Calm
Temperature: 73°F , 23°C
Dew Point: 66°F , 19°C
Humidity: 78%
Barometer: 30.14 inHg , 1020.7 hPa
Clouds: Clear
Visibility: 10 miles , 16 km
2020/08/09 04:53 KLNS 090453Z AUTO 00000KT 10SM CLR 23/19 A3014 RMK AO2 SLP203 T02280194 403000206
KELM - Elmira, New York, USA
Distance from station: NW 82mi, 132km
Updated: Sat, 08-Aug-2020 9:53pm PDT
Clear
Clear
 Wind from SSW
Wind: SSW 3 mph , 6 km/h
Temperature: 64°F , 18°C
Dew Point: 63°F , 17°C
Humidity: 94%
Barometer: 30.14 inHg , 1020.7 hPa
Clouds: Clear
Visibility: 10 miles , 16 km
2020/08/09 04:53 KELM 090453Z AUTO 21003KT 10SM CLR 18/17 A3014 RMK AO2 SLP202 T01830172 403000156
 
KLOM - Philly Wings F, Pennsylvania, USA
Distance from station: SSE 82mi, 132km
Updated: Sat, 08-Aug-2020 10:15pm PDT
Overcast
Overcast
 Wind from calm
Wind: Calm
Temperature: 68°F , 20°C
Dew Point: 68°F , 20°C
Humidity: 100%
Barometer: 30.15 inHg , 1021 hPa
Clouds: Overcast
Visibility: 7 miles , 11 km
Cloud details: Overcast 800 ft
2020/08/09 05:15 KLOM 090515Z AUTO 00000KT 7SM OVC008 20/20 A3015 RMK AO2 T02030202
KMMU - Morristown Muni, New Jersey, USA
Distance from station: ESE 83mi, 134km
Updated: Sat, 08-Aug-2020 10:15pm PDT
Clear
Clear
 Wind from calm
Wind: Calm
Temperature: 68°F , 20°C
Dew Point: 66°F , 19°C
Humidity: 94%
Barometer: 30.13 inHg , 1020.3 hPa
Clouds: Clear
Visibility: 10 miles , 16 km
2020/08/09 05:15 KMMU 090515Z AUTO 00000KT 10SM CLR 20/19 A3013 RMK AO2

Metar display script from Saratoga-Weather.org